Time;durP1;ratioP1;P1;durP2;ratioP2;P2;SDS_P1;SDS_P2;PMS_P1;PMS_P2;Temp;Humidity;BMP_temperature;BMP_pressure;BME280_temperature;BME280_humidity;BME280_pressure;Samples;Min_cycle;Max_cycle;Signal;HPM_P1;HPM_P2
2023/04/25 00:00:27;;;;;;;4.07;3.30;;;7.60;99.90;;;;;;7592122;19;20401;-77
2023/04/25 00:02:59;;;;;;;5.35;3.17;;;7.60;99.90;;;;;;7592381;19;20011;-77
2023/04/25 00:05:31;;;;;;;4.82;3.33;;;7.50;99.90;;;;;;7585734;19;20022;-78
2023/04/25 00:08:05;;;;;;;4.55;3.30;;;7.60;99.90;;;;;;7586182;19;20026;-77
2023/04/25 00:10:37;;;;;;;4.15;3.03;;;7.70;99.90;;;;;;7595072;19;20607;-77
2023/04/25 00:13:11;;;;;;;4.57;3.55;;;7.70;99.90;;;;;;7606020;19;20014;-76
2023/04/25 00:15:44;;;;;;;6.88;3.30;;;7.70;99.90;;;;;;7590573;19;20025;-76
2023/04/25 00:18:17;;;;;;;4.20;2.63;;;7.80;99.90;;;;;;7594885;19;20014;-77
2023/04/25 00:20:49;;;;;;;5.80;3.25;;;7.90;99.90;;;;;;7598685;19;20003;-77
2023/04/25 00:23:22;;;;;;;4.80;3.08;;;7.90;99.90;;;;;;7587534;19;20046;-76
2023/04/25 00:25:54;;;;;;;6.10;2.80;;;7.90;99.90;;;;;;7602318;19;20026;-77
2023/04/25 00:28:26;;;;;;;6.00;3.20;;;7.90;99.90;;;;;;7595612;19;20019;-77
2023/04/25 00:30:58;;;;;;;7.25;3.08;;;7.90;99.90;;;;;;7597265;19;20071;-77
2023/04/25 00:33:31;;;;;;;4.57;3.65;;;7.80;99.90;;;;;;7583730;19;21220;-77
2023/04/25 00:36:03;;;;;;;7.82;3.08;;;7.80;99.90;;;;;;7593719;19;20018;-79
2023/04/25 00:38:37;;;;;;;5.53;3.30;;;7.90;99.90;;;;;;7604152;19;20722;-78
2023/04/25 00:41:10;;;;;;;4.55;3.25;;;7.90;99.90;;;;;;7579964;19;20037;-78
2023/04/25 00:43:45;;;;;;;7.18;3.30;;;8.00;99.90;;;;;;7600375;19;20027;-77
2023/04/25 00:46:17;;;;;;;4.50;3.03;;;8.00;99.90;;;;;;7614249;19;20124;-77
2023/04/25 00:48:49;;;;;;;5.15;3.10;;;8.00;99.90;;;;;;7603747;19;20090;-77
2023/04/25 00:51:22;;;;;;;4.82;3.60;;;8.00;99.90;;;;;;7592718;19;20781;-77
2023/04/25 00:53:54;;;;;;;6.40;3.13;;;8.00;99.90;;;;;;7590792;19;20053;-77
2023/04/25 00:56:27;;;;;;;5.97;3.17;;;7.90;99.90;;;;;;7608173;19;20010;-76
2023/04/25 00:58:59;;;;;;;7.45;3.72;;;8.00;99.90;;;;;;7603178;19;20106;-78
2023/04/25 01:01:32;;;;;;;5.68;3.20;;;8.00;99.90;;;;;;7605641;19;20439;-76
2023/04/25 01:04:04;;;;;;;6.83;3.70;;;7.90;99.90;;;;;;7582208;19;20030;-78
2023/04/25 01:06:37;;;;;;;4.50;3.22;;;7.90;99.90;;;;;;7590878;19;20029;-77
2023/04/25 01:09:09;;;;;;;5.93;3.30;;;7.90;99.90;;;;;;7577218;19;20011;-76
2023/04/25 01:11:42;;;;;;;5.17;3.30;;;7.90;99.90;;;;;;7584327;19;20374;-77
2023/04/25 01:14:15;;;;;;;4.85;3.30;;;7.90;99.90;;;;;;7588402;19;20010;-77
2023/04/25 01:16:47;;;;;;;7.45;4.10;;;7.80;99.90;;;;;;7593225;19;20014;-76
2023/04/25 01:19:20;;;;;;;4.47;3.50;;;7.90;99.90;;;;;;7583098;19;20010;-77
2023/04/25 01:21:52;;;;;;;8.38;3.45;;;7.80;99.90;;;;;;7579313;19;20022;-77
2023/04/25 01:24:25;;;;;;;5.95;3.13;;;7.90;99.90;;;;;;7586450;19;20018;-78
2023/04/25 01:27:00;;;;;;;8.32;4.45;;;7.80;99.90;;;;;;7584961;19;20018;-78
2023/04/25 01:29:33;;;;;;;5.75;3.85;;;7.80;99.90;;;;;;7592878;19;21034;-76
2023/04/25 01:32:06;;;;;;;5.38;3.92;;;7.70;99.90;;;;;;7584429;19;20022;-77
2023/04/25 01:34:38;;;;;;;13.18;4.18;;;7.70;99.90;;;;;;7605287;19;20115;-77
2023/04/25 01:37:10;;;;;;;8.77;4.10;;;7.70;99.90;;;;;;7589261;19;20619;-77
2023/04/25 01:39:43;;;;;;;9.68;4.30;;;7.70;99.90;;;;;;7589837;19;20050;-76
2023/04/25 01:42:15;;;;;;;5.60;3.75;;;7.80;99.90;;;;;;7591739;19;20491;-77
2023/04/25 01:44:47;;;;;;;5.05;3.50;;;7.70;99.90;;;;;;7583475;19;20705;-76
2023/04/25 01:47:20;;;;;;;6.75;4.38;;;7.80;99.90;;;;;;7594731;19;20054;-77
2023/04/25 01:49:52;;;;;;;5.50;3.53;;;7.70;99.90;;;;;;7588509;19;20520;-77
2023/04/25 01:52:24;;;;;;;5.13;3.25;;;7.70;99.90;;;;;;7592108;19;20639;-77
2023/04/25 01:54:59;;;;;;;8.40;3.42;;;7.80;99.90;;;;;;7601532;19;20021;-77
2023/04/25 01:57:33;;;;;;;7.57;3.85;;;7.70;99.90;;;;;;7604164;19;20014;-77
2023/04/25 02:00:06;;;;;;;6.43;3.20;;;7.70;99.90;;;;;;7604257;19;20018;-77
2023/04/25 02:02:45;;;;;;;5.82;3.70;;;7.70;99.90;;;;;;7604214;19;20147;-76
2023/04/25 02:05:36;;;;;;;4.95;3.33;;;7.70;99.90;;;;;;7606449;19;20022;-78
2023/04/25 02:08:11;;;;;;;5.60;3.67;;;7.70;99.90;;;;;;7591360;19;20357;-78
2023/04/25 02:10:43;;;;;;;5.97;3.63;;;7.50;99.90;;;;;;7598754;19;20130;-78
2023/04/25 02:13:24;;;;;;;5.05;3.42;;;7.30;99.90;;;;;;7587768;19;20567;-77
2023/04/25 02:16:04;;;;;;;8.95;3.72;;;7.30;99.90;;;;;;7590381;19;21121;-77
2023/04/25 02:18:37;;;;;;;8.05;3.72;;;7.30;99.90;;;;;;7610047;19;20043;-77
2023/04/25 02:21:11;;;;;;;6.15;4.07;;;7.30;99.90;;;;;;7595698;19;20046;-77
2023/04/25 02:23:47;;;;;;;7.13;3.73;;;7.20;99.90;;;;;;7585498;19;20014;-77
2023/04/25 02:26:20;;;;;;;6.65;3.50;;;7.10;99.90;;;;;;7586284;19;20097;-76
2023/04/25 02:28:53;;;;;;;6.68;3.78;;;7.10;99.90;;;;;;7581125;19;20041;-77
2023/04/25 02:31:25;;;;;;;4.47;3.83;;;7.20;99.90;;;;;;7594662;19;20018;-77
2023/04/25 02:33:58;;;;;;;7.85;4.05;;;7.30;99.90;;;;;;7589520;19;20022;-78
2023/04/25 02:36:34;;;;;;;4.47;3.65;;;7.20;99.90;;;;;;7588203;19;20010;-78
2023/04/25 02:39:06;;;;;;;5.03;4.00;;;7.20;99.90;;;;;;7582660;19;20086;-78
2023/04/25 02:41:39;;;;;;;44.73;26.57;;;7.20;99.90;;;;;;7600799;19;20014;-76
2023/04/25 02:44:12;;;;;;;9.68;6.65;;;7.20;99.90;;;;;;7592868;19;21113;-76
2023/04/25 02:46:44;;;;;;;5.60;3.58;;;7.20;99.90;;;;;;7585065;19;20405;-76
2023/04/25 02:49:16;;;;;;;5.43;3.47;;;7.30;99.90;;;;;;7588111;19;20973;-76
2023/04/25 02:51:48;;;;;;;5.05;3.28;;;7.30;99.90;;;;;;7568639;19;20082;-77
2023/04/25 02:54:20;;;;;;;5.15;3.45;;;7.30;99.90;;;;;;7570937;19;20015;-77
2023/04/25 02:56:53;;;;;;;6.00;3.37;;;7.30;99.90;;;;;;7580591;19;21260;-77
2023/04/25 02:59:30;;;;;;;7.35;3.45;;;7.30;99.90;;;;;;7602074;19;20017;-77
2023/04/25 03:02:03;;;;;;;6.65;3.72;;;7.30;99.90;;;;;;7588752;19;20022;-77
2023/04/25 03:04:35;;;;;;;8.05;3.47;;;7.30;99.90;;;;;;7591159;19;20100;-77
2023/04/25 03:07:07;;;;;;;6.75;3.10;;;7.30;99.90;;;;;;7563637;19;20003;-76
2023/04/25 03:09:39;;;;;;;5.32;3.63;;;7.30;99.90;;;;;;7591374;19;20018;-77
2023/04/25 03:12:12;;;;;;;7.95;3.72;;;7.30;99.90;;;;;;7556443;19;20097;-77
2023/04/25 03:14:44;;;;;;;8.65;3.75;;;7.30;99.90;;;;;;7583055;19;20010;-77
2023/04/25 03:17:16;;;;;;;6.28;3.28;;;7.40;99.90;;;;;;7569625;19;20059;-77
2023/04/25 03:19:49;;;;;;;6.30;3.72;;;7.40;99.90;;;;;;7580840;19;20021;-78
2023/04/25 03:22:22;;;;;;;5.03;3.13;;;7.40;99.90;;;;;;7589156;19;20025;-77
2023/04/25 03:24:55;;;;;;;;;;;7.30;99.90;;;;;;7569948;19;20363;-76
2023/04/25 03:27:27;;;;;;;6.05;3.72;;;7.20;99.90;;;;;;7564735;19;20025;-77
2023/04/25 03:29:59;;;;;;;11.68;3.80;;;7.10;99.90;;;;;;7583938;19;20593;-76
2023/04/25 03:32:32;;;;;;;5.43;3.17;;;7.10;99.90;;;;;;7564761;19;20018;-77
2023/04/25 03:35:05;;;;;;;3.80;2.70;;;7.20;99.90;;;;;;7584518;19;20015;-76
2023/04/25 03:37:37;;;;;;;6.05;3.72;;;7.20;99.90;;;;;;7594704;19;20243;-76
2023/04/25 03:40:11;;;;;;;4.68;3.40;;;7.00;99.90;;;;;;7582620;19;20014;-77
2023/04/25 03:43:11;;;;;;;9.15;2.95;;;6.90;99.90;;;;;;7540009;19;20010;-77
2023/04/25 03:45:47;;;;;;;9.52;3.42;;;6.90;99.90;;;;;;7553263;19;20019;-76
2023/04/25 03:48:24;;;;;;;5.95;3.17;;;6.70;99.90;;;;;;7559644;19;20015;-77
2023/04/25 03:50:58;;;;;;;8.77;3.55;;;6.70;99.90;;;;;;7563877;19;20056;-77
2023/04/25 03:53:30;;;;;;;5.43;2.58;;;6.70;99.90;;;;;;7581471;19;20018;-77
2023/04/25 03:56:20;;;;;;;3.90;2.78;;;6.70;99.90;;;;;;7545658;19;20049;-76
2023/04/25 03:59:00;;;;;;;6.78;3.20;;;6.60;99.90;;;;;;7546754;19;20033;-77
2023/04/25 04:01:35;;;;;;;8.27;3.47;;;6.50;99.90;;;;;;7573839;19;20553;-78
2023/04/25 04:04:07;;;;;;;6.10;3.35;;;6.30;99.90;;;;;;7579663;19;20019;-77
2023/04/25 04:06:40;;;;;;;6.82;3.72;;;6.40;99.90;;;;;;7584257;19;20018;-76
2023/04/25 04:09:19;;;;;;;7.00;3.25;;;6.40;99.90;;;;;;7559719;19;20022;-76
2023/04/25 04:11:52;;;;;;;5.05;3.67;;;6.40;99.90;;;;;;7557914;19;20037;-77
2023/04/25 04:14:24;;;;;;;6.78;3.05;;;6.40;99.90;;;;;;7574759;19;20018;-77
2023/04/25 04:16:57;;;;;;;12.48;3.40;;;6.40;99.90;;;;;;7570906;19;20025;-76
2023/04/25 04:19:29;;;;;;;7.88;3.47;;;6.40;99.90;;;;;;7576528;19;20019;-78
2023/04/25 04:22:23;;;;;;;5.82;3.50;;;6.40;99.90;;;;;;7577866;19;20010;-76
2023/04/25 04:24:58;;;;;;;7.03;3.33;;;6.30;99.90;;;;;;7565749;19;20688;-76
2023/04/25 04:27:54;;;;;;;7.60;3.60;;;6.30;99.90;;;;;;7582551;19;20014;-76
2023/04/25 04:30:40;;;;;;;5.68;3.10;;;6.30;99.90;;;;;;7544018;19;20049;-76
2023/04/25 04:33:14;;;;;;;5.28;3.03;;;6.30;99.90;;;;;;7557262;19;20124;-75
2023/04/25 04:35:52;;;;;;;5.35;3.53;;;6.30;99.90;;;;;;7570949;19;20015;-75
2023/04/25 04:38:25;;;;;;;8.02;3.75;;;6.30;99.90;;;;;;7540557;19;20014;-76
2023/04/25 04:41:00;;;;;;;9.55;4.07;;;6.40;99.90;;;;;;7561528;19;20214;-78
2023/04/25 04:43:53;;;;;;;13.82;5.35;;;6.40;99.90;;;;;;7580734;19;21067;-75
2023/04/25 04:46:37;;;;;;;12.07;4.80;;;6.50;99.90;;;;;;7556823;19;20022;-76
2023/04/25 04:49:21;;;;;;;9.05;4.20;;;6.50;99.90;;;;;;7545670;19;21032;-76
2023/04/25 04:52:12;;;;;;;17.08;6.97;;;6.50;99.90;;;;;;7574816;19;20010;-76
2023/04/25 04:55:07;;;;;;;4.75;2.97;;;6.50;99.90;;;;;;7568998;19;20010;-76
2023/04/25 04:58:00;;;;;;;6.00;3.80;;;6.50;99.90;;;;;;7568753;19;20022;-76
2023/04/25 05:00:43;;;;;;;7.43;4.22;;;6.50;99.90;;;;;;7528370;19;20017;-76
2023/04/25 05:03:36;;;;;;;7.50;3.70;;;6.60;99.90;;;;;;7567677;19;20015;-76
2023/04/25 05:06:36;;;;;;;8.80;3.83;;;6.40;99.90;;;;;;7581529;19;20300;-76
2023/04/25 05:09:29;;;;;;;9.15;5.15;;;6.60;99.90;;;;;;7537143;19;21265;-76
2023/04/25 05:12:07;;;;;;;13.23;7.13;;;6.60;99.90;;;;;;7534524;19;21100;-75
2023/04/25 05:15:03;;;;;;;5.82;3.55;;;6.70;99.90;;;;;;7577472;19;20062;-77
2023/04/25 05:17:55;;;;;;;6.55;3.95;;;6.70;99.90;;;;;;7601944;19;20021;-74
2023/04/25 05:20:46;;;;;;;9.38;5.38;;;6.80;99.90;;;;;;7593997;19;20019;-74
2023/04/25 05:23:45;;;;;;;9.88;5.07;;;6.50;99.90;;;;;;7572714;19;20018;-76
2023/04/25 05:26:34;;;;;;;12.35;5.35;;;6.60;99.90;;;;;;7600545;19;20022;-76
2023/04/25 05:29:27;;;;;;;9.48;5.38;;;6.60;99.90;;;;;;7539920;19;20018;-76
2023/04/25 05:32:31;;;;;;;8.57;4.60;;;6.70;99.90;;;;;;7573567;19;20054;-76
2023/04/25 05:35:06;;;;;;;8.57;4.97;;;6.70;99.90;;;;;;7567659;19;20631;-75
2023/04/25 05:37:45;;;;;;;9.45;5.28;;;6.70;99.90;;;;;;7582633;19;20777;-75
2023/04/25 05:40:19;;;;;;;4.95;3.90;;;6.70;99.90;;;;;;7575339;19;20018;-75
2023/04/25 05:42:51;;;;;;;6.80;4.20;;;6.70;99.90;;;;;;7589127;19;20681;-75
2023/04/25 05:45:32;;;;;;;9.13;4.57;;;6.70;99.90;;;;;;7578622;19;20051;-75
2023/04/25 05:48:40;;;;;;;7.40;4.40;;;6.80;99.90;;;;;;7574860;19;20018;-76
2023/04/25 05:51:41;;;;;;;6.63;4.00;;;6.80;99.90;;;;;;7579539;19;20023;-75
2023/04/25 05:54:19;;;;;;;8.38;4.53;;;7.00;99.90;;;;;;7593895;19;20068;-75
2023/04/25 05:56:51;;;;;;;9.02;4.25;;;7.00;99.90;;;;;;7597650;19;20692;-74
2023/04/25 05:59:24;;;;;;;6.03;3.90;;;6.90;99.90;;;;;;7587195;19;20015;-74
2023/04/25 06:01:56;;;;;;;6.25;4.18;;;7.10;99.90;;;;;;7583695;19;20018;-75
2023/04/25 06:04:28;;;;;;;6.50;4.25;;;7.20;99.90;;;;;;7587267;19;20018;-75
2023/04/25 06:07:01;;;;;;;12.98;4.88;;;7.40;99.90;;;;;;7592784;19;20010;-77
2023/04/25 06:09:34;;;;;;;13.93;6.78;;;7.40;99.90;;;;;;7587535;19;20055;-75
2023/04/25 06:12:07;;;;;;;11.13;6.10;;;7.50;99.90;;;;;;7587033;19;20018;-75
2023/04/25 06:14:41;;;;;;;7.65;4.30;;;7.70;99.90;;;;;;7591974;19;20023;-76
2023/04/25 06:17:13;;;;;;;;;;;7.70;99.90;;;;;;7564347;19;20019;-75
2023/04/25 06:19:45;;;;;;;5.82;3.75;;;7.80;99.90;;;;;;7595307;19;19926;-75
2023/04/25 06:22:17;;;;;;;6.78;4.55;;;7.90;99.90;;;;;;7584439;19;20494;-74
2023/04/25 06:24:50;;;;;;;5.60;3.95;;;8.40;99.90;;;;;;7586550;19;20018;-75
2023/04/25 06:27:22;;;;;;;7.97;3.50;;;7.60;99.90;;;;;;7582996;19;20715;-74
2023/04/25 06:29:54;;;;;;;7.50;4.00;;;7.60;99.90;;;;;;7585278;19;20554;-74
2023/04/25 06:32:28;;;;;;;7.32;4.05;;;7.50;99.90;;;;;;7574146;19;20614;-74
2023/04/25 06:35:04;;;;;;;7.93;3.83;;;7.50;99.90;;;;;;7575342;19;20021;-75
2023/04/25 06:37:37;;;;;;;5.55;3.30;;;7.40;99.90;;;;;;7580377;19;20014;-75
2023/04/25 06:40:10;;;;;;;6.35;3.22;;;7.20;99.90;;;;;;7569862;19;20045;-75
2023/04/25 06:42:43;;;;;;;4.53;2.88;;;7.30;99.90;;;;;;7581152;19;20022;-75
2023/04/25 06:45:42;;;;;;;6.95;3.90;;;7.30;99.90;;;;;;7565816;19;20018;-76
2023/04/25 06:48:17;;;;;;;9.10;3.53;;;7.30;99.90;;;;;;7564819;19;20418;-75
2023/04/25 06:50:49;;;;;;;7.45;3.67;;;7.40;99.90;;;;;;7540808;19;20059;-74
2023/04/25 06:53:22;;;;;;;5.95;3.85;;;7.50;99.90;;;;;;7573710;19;20019;-75
2023/04/25 06:56:00;;;;;;;5.50;3.90;;;7.60;99.90;;;;;;7591496;19;20030;-75
2023/04/25 06:58:48;;;;;;;5.63;3.80;;;7.80;99.90;;;;;;7602724;19;20022;-76
2023/04/25 07:01:28;;;;;;;8.30;3.78;;;7.90;99.90;;;;;;7580904;19;20017;-76
2023/04/25 07:04:02;;;;;;;5.15;3.50;;;8.00;99.90;;;;;;7576403;19;20585;-76
2023/04/25 07:06:42;;;;;;;5.78;3.42;;;8.00;99.90;;;;;;7574406;19;20025;-75
2023/04/25 07:09:15;;;;;;;7.00;4.13;;;8.00;99.90;;;;;;7582416;19;20033;-74
2023/04/25 07:11:50;;;;;;;7.05;3.50;;;8.00;99.90;;;;;;7589260;19;20010;-77
2023/04/25 07:14:23;;;;;;;7.93;3.63;;;8.10;99.90;;;;;;7596765;19;20051;-76
2023/04/25 07:16:58;;;;;;;10.05;3.70;;;8.20;99.90;;;;;;7593673;19;21045;-75
2023/04/25 07:19:33;;;;;;;6.22;3.53;;;8.30;99.90;;;;;;7584867;19;20029;-76
2023/04/25 07:22:06;;;;;;;9.25;3.53;;;8.30;99.90;;;;;;7586793;19;20018;-77
2023/04/25 07:24:41;;;;;;;8.88;3.58;;;8.30;99.90;;;;;;7591581;19;20018;-75
2023/04/25 07:27:17;;;;;;;5.78;3.58;;;8.20;99.90;;;;;;7590509;19;20022;-75
2023/04/25 07:30:09;;;;;;;7.90;3.85;;;8.10;99.90;;;;;;7594565;19;20640;-75
2023/04/25 07:32:43;;;;;;;7.25;3.80;;;8.20;99.90;;;;;;7595262;19;20525;-76
2023/04/25 07:35:17;;;;;;;5.97;2.78;;;8.20;99.90;;;;;;7596161;19;20498;-75
2023/04/25 07:37:50;;;;;;;7.13;3.30;;;8.20;99.90;;;;;;7592292;19;20022;-76
2023/04/25 07:40:24;;;;;;;5.32;3.65;;;8.30;99.90;;;;;;7590920;19;20014;-75
2023/04/25 07:43:04;;;;;;;5.30;3.05;;;8.40;99.90;;;;;;7586645;19;20679;-75
2023/04/25 07:45:44;;;;;;;7.93;3.95;;;8.30;99.90;;;;;;7593866;19;20587;-75
2023/04/25 07:48:21;;;;;;;6.82;3.40;;;8.20;99.90;;;;;;7581735;19;20030;-76
2023/04/25 07:50:56;;;;;;;10.65;3.95;;;8.20;99.90;;;;;;7599351;19;20090;-75
2023/04/25 07:53:28;;;;;;;10.20;4.18;;;8.30;99.90;;;;;;7591553;19;20014;-75
2023/04/25 07:56:06;;;;;;;8.73;3.92;;;8.40;99.90;;;;;;7593227;19;20006;-76
2023/04/25 07:58:42;;;;;;;7.22;3.67;;;8.50;99.90;;;;;;7591231;19;20055;-75
2023/04/25 08:01:18;;;;;;;8.80;3.75;;;8.80;99.90;;;;;;7569989;19;20138;-76
2023/04/25 08:03:59;;;;;;;5.75;4.25;;;8.90;99.90;;;;;;7582793;19;20010;-75
2023/04/25 08:06:49;;;;;;;10.20;4.20;;;9.00;99.90;;;;;;7592309;19;20023;-75
2023/04/25 08:09:27;;;;;;;9.65;3.58;;;9.40;99.90;;;;;;7579984;19;20023;-75
2023/04/25 08:12:01;;;;;;;8.35;3.40;;;9.70;99.90;;;;;;7601653;19;20029;-75
2023/04/25 08:14:37;;;;;;;5.65;3.08;;;10.00;99.90;;;;;;7588364;19;20014;-75
2023/04/25 08:17:10;;;;;;;;;;;10.20;99.90;;;;;;7594430;19;20702;-76
2023/04/25 08:19:45;;;;;;;8.32;3.38;;;10.30;99.90;;;;;;7587320;19;19923;-75
2023/04/25 08:22:30;;;;;;;6.63;2.92;;;10.10;99.90;;;;;;7573626;19;20030;-76
2023/04/25 08:25:19;;;;;;;6.20;3.40;;;10.30;99.90;;;;;;7575388;19;20045;-76
2023/04/25 08:27:52;;;;;;;7.43;3.58;;;10.70;99.90;;;;;;7593410;19;20050;-76
2023/04/25 08:30:26;;;;;;;5.30;2.38;;;10.80;98.70;;;;;;7582787;19;20018;-75
2023/04/25 08:32:59;;;;;;;3.83;2.15;;;10.70;96.60;;;;;;7582929;19;20501;-76
2023/04/25 08:35:50;;;;;;;5.72;2.83;;;10.70;93.70;;;;;;7582213;19;20018;-76
2023/04/25 08:38:23;;;;;;;8.35;2.80;;;10.90;91.90;;;;;;7584758;19;20117;-76
2023/04/25 08:41:01;;;;;;;6.07;3.15;;;10.90;92.40;;;;;;7568605;19;20512;-76
2023/04/25 08:43:35;;;;;;;6.22;2.65;;;10.80;92.40;;;;;;7576897;19;20006;-75
2023/04/25 08:46:08;;;;;;;6.82;2.90;;;10.90;92.50;;;;;;7580396;19;20079;-76
2023/04/25 08:49:02;;;;;;;6.55;3.20;;;10.80;93.20;;;;;;7585152;19;20014;-76
2023/04/25 08:51:38;;;;;;;4.80;3.00;;;10.80;92.70;;;;;;7580181;19;20022;-76
2023/04/25 08:54:12;;;;;;;4.10;2.78;;;10.90;92.30;;;;;;7584059;19;20029;-76
2023/04/25 08:56:48;;;;;;;5.93;2.90;;;10.90;92.70;;;;;;7589850;19;20528;-76
2023/04/25 08:59:22;;;;;;;8.13;3.67;;;10.80;91.70;;;;;;7587356;19;20022;-77
2023/04/25 09:01:55;;;;;;;8.60;3.22;;;11.00;94.40;;;;;;7566678;19;22649;-75
2023/04/25 09:04:29;;;;;;;4.27;3.30;;;11.00;90.10;;;;;;7574363;19;20015;-76
2023/04/25 09:07:02;;;;;;;8.45;3.40;;;11.10;92.30;;;;;;7593083;19;20006;-77
2023/04/25 09:09:36;;;;;;;3.92;2.50;;;11.30;90.10;;;;;;7569754;19;20888;-76
2023/04/25 09:12:08;;;;;;;4.85;2.92;;;11.30;87.80;;;;;;7594948;19;20493;-76
2023/04/25 09:14:42;;;;;;;7.93;2.92;;;11.60;86.60;;;;;;7582823;19;20623;-76
2023/04/25 09:17:29;;;;;;;4.20;3.25;;;11.50;84.20;;;;;;7592888;19;20018;-76
2023/04/25 09:20:08;;;;;;;4.63;2.95;;;11.50;83.60;;;;;;7585080;19;20375;-76
2023/04/25 09:22:40;;;;;;;5.70;2.40;;;11.60;83.90;;;;;;7578350;19;20029;-76
2023/04/25 09:25:16;;;;;;;8.80;2.70;;;11.60;83.70;;;;;;7598757;19;20027;-77
2023/04/25 09:27:55;;;;;;;4.28;2.10;;;11.80;85.20;;;;;;7567251;19;20090;-76
2023/04/25 09:30:35;;;;;;;4.32;2.15;;;11.90;81.50;;;;;;7584713;19;21217;-76
2023/04/25 09:33:14;;;;;;;4.03;2.55;;;12.00;80.90;;;;;;7592179;19;20010;-77
2023/04/25 09:35:55;;;;;;;5.18;2.10;;;12.10;80.10;;;;;;7596965;19;20356;-76
2023/04/25 09:38:44;;;;;;;4.00;2.10;;;12.30;81.60;;;;;;7580848;19;20027;-78
2023/04/25 09:41:37;;;;;;;6.38;2.58;;;12.40;79.40;;;;;;7585739;19;20025;-76
2023/04/25 09:44:12;;;;;;;5.97;2.42;;;12.50;78.00;;;;;;7584246;19;20042;-76
2023/04/25 09:46:53;;;;;;;5.32;2.22;;;12.50;76.70;;;;;;7597468;19;20339;-77
2023/04/25 09:49:28;;;;;;;5.47;1.90;;;12.50;74.70;;;;;;7587547;19;20052;-77
2023/04/25 09:52:06;;;;;;;5.70;2.10;;;12.40;73.10;;;;;;7596811;19;20358;-76
2023/04/25 09:54:47;;;;;;;10.75;2.40;;;12.50;74.30;;;;;;7571713;19;20017;-77
2023/04/25 09:57:24;;;;;;;2.80;1.83;;;12.40;73.40;;;;;;7577596;19;20562;-77
2023/04/25 10:00:00;;;;;;;2.70;2.03;;;12.40;74.90;;;;;;7571187;19;20693;-76
2023/04/25 10:02:48;;;;;;;4.57;2.33;;;12.30;75.90;;;;;;7568550;19;20500;-77
2023/04/25 10:05:43;;;;;;;4.53;3.05;;;12.40;76.60;;;;;;7581939;19;20021;-75
2023/04/25 10:08:16;;;;;;;3.13;2.45;;;12.40;75.60;;;;;;7579545;19;20371;-76
2023/04/25 10:10:50;;;;;;;5.80;2.40;;;12.40;76.80;;;;;;7574792;19;20054;-76
2023/04/25 10:13:23;;;;;;;4.13;2.38;;;12.20;75.40;;;;;;7582527;19;20018;-77
2023/04/25 10:15:57;;;;;;;4.90;2.13;;;12.10;76.00;;;;;;7582130;19;22386;-75
2023/04/25 10:18:31;;;;;;;5.68;2.33;;;12.10;75.40;;;;;;7568847;19;20010;-75
2023/04/25 10:21:05;;;;;;;5.25;3.53;;;12.10;74.90;;;;;;7574807;19;20117;-76
2023/04/25 10:23:38;;;;;;;2.97;1.98;;;11.90;74.10;;;;;;7572528;19;21070;-77
2023/04/25 10:26:12;;;;;;;3.35;2.22;;;11.80;75.60;;;;;;7582902;19;20014;-77
2023/04/25 10:28:57;;;;;;;;;;;11.90;76.00;;;;;;7594110;19;20478;-76
2023/04/25 10:31:31;;;;;;;4.38;2.30;;;11.90;76.40;;;;;;7597035;19;19926;-76
2023/04/25 10:34:05;;;;;;;3.90;2.50;;;11.90;75.70;;;;;;7590987;19;20966;-76
2023/04/25 10:36:37;;;;;;;5.43;2.35;;;11.90;76.20;;;;;;7598589;19;20903;-77
2023/04/25 10:39:10;;;;;;;4.57;2.77;;;12.10;78.20;;;;;;7586468;19;20693;-76
2023/04/25 10:41:47;;;;;;;7.63;2.85;;;12.40;76.90;;;;;;7589234;19;20010;-75
2023/04/25 10:44:20;;;;;;;4.78;2.42;;;12.70;76.00;;;;;;7585216;19;20022;-77
2023/04/25 10:46:54;;;;;;;3.28;2.00;;;12.90;72.30;;;;;;7585288;19;20090;-77
2023/04/25 10:49:35;;;;;;;5.78;2.50;;;12.90;71.40;;;;;;7583862;19;20018;-76
2023/04/25 10:52:24;;;;;;;6.72;2.40;;;12.90;71.10;;;;;;7580570;19;20014;-76
2023/04/25 10:54:58;;;;;;;3.47;2.35;;;12.90;70.00;;;;;;7577502;19;20045;-77
2023/04/25 10:57:31;;;;;;;10.05;2.58;;;12.60;74.20;;;;;;7569015;19;20015;-76
2023/04/25 11:00:15;;;;;;;3.55;2.55;;;12.10;80.80;;;;;;7587865;19;20843;-76
2023/04/25 11:02:51;;;;;;;4.97;2.17;;;11.70;85.40;;;;;;7567850;19;20019;-76
2023/04/25 11:05:34;;;;;;;3.70;2.13;;;11.30;83.60;;;;;;7595547;19;20025;-75
2023/04/25 11:08:36;;;;;;;2.33;1.63;;;10.90;85.10;;;;;;7578447;19;20014;-77
2023/04/25 11:11:09;;;;;;;2.58;1.85;;;11.00;84.70;;;;;;7570075;19;20018;-77
2023/04/25 11:13:41;;;;;;;4.00;1.95;;;11.00;84.70;;;;;;7554935;19;20435;-77
2023/04/25 11:16:14;;;;;;;4.10;2.20;;;10.80;81.50;;;;;;7567679;19;20011;-77
2023/04/25 11:18:48;;;;;;;3.65;2.25;;;10.80;83.80;;;;;;7571718;19;20018;-76
2023/04/25 11:21:21;;;;;;;3.47;2.20;;;10.70;85.60;;;;;;7568191;19;20018;-77
2023/04/25 11:23:56;;;;;;;6.63;2.60;;;10.50;87.40;;;;;;7569622;19;20026;-75
2023/04/25 11:26:30;;;;;;;5.68;2.55;;;10.30;90.00;;;;;;7573704;19;20022;-76
2023/04/25 11:29:03;;;;;;;6.75;2.92;;;10.40;91.10;;;;;;7577608;19;20483;-76
2023/04/25 11:31:35;;;;;;;4.27;1.80;;;10.50;91.00;;;;;;7571196;19;20034;-76
2023/04/25 11:34:08;;;;;;;5.80;3.40;;;10.50;89.40;;;;;;7559410;19;20305;-76
2023/04/25 11:36:40;;;;;;;8.55;4.32;;;9.70;91.90;;;;;;7564752;19;20015;-76
2023/04/25 11:39:13;;;;;;;5.13;2.58;;;9.40;94.40;;;;;;7566883;19;20015;-75
2023/04/25 11:41:46;;;;;;;4.68;3.30;;;9.40;96.60;;;;;;7575805;19;20029;-75
2023/04/25 11:44:19;;;;;;;2.90;2.47;;;9.00;99.40;;;;;;7585097;19;20010;-76
2023/04/25 11:46:52;;;;;;;3.47;2.38;;;8.70;99.90;;;;;;7581325;19;20015;-75
2023/04/25 11:49:29;;;;;;;4.57;3.58;;;8.50;99.90;;;;;;7551075;19;21046;-75
2023/04/25 11:52:07;;;;;;;4.90;2.60;;;8.40;99.90;;;;;;7567935;19;20014;-76
2023/04/25 11:54:40;;;;;;;4.53;2.58;;;8.50;99.90;;;;;;7549590;19;20053;-75
2023/04/25 11:57:13;;;;;;;;;;;8.70;99.90;;;;;;7569772;19;20022;-76
2023/04/25 11:59:46;;;;;;;4.20;3.03;;;8.50;99.90;;;;;;7582656;19;19937;-76
2023/04/25 12:02:26;;;;;;;5.32;2.60;;;8.50;99.90;;;;;;7591396;19;20019;-75
2023/04/25 12:04:59;;;;;;;4.60;2.97;;;8.50;99.90;;;;;;7594029;19;20023;-76
2023/04/25 12:07:52;;;;;;;3.80;2.60;;;8.30;99.90;;;;;;7557574;19;20612;-76
2023/04/25 12:10:25;;;;;;;4.78;2.67;;;8.30;99.90;;;;;;7550881;19;20048;-76
2023/04/25 12:12:57;;;;;;;3.47;2.55;;;8.00;99.90;;;;;;7567803;19;20034;-75
2023/04/25 12:15:30;;;;;;;7.82;2.72;;;8.10;99.90;;;;;;7579274;19;20097;-75
2023/04/25 12:18:02;;;;;;;3.65;2.78;;;7.80;99.90;;;;;;7557866;19;20026;-76
2023/04/25 12:20:35;;;;;;;4.18;2.92;;;7.90;99.90;;;;;;7571013;19;20018;-76
2023/04/25 12:23:08;;;;;;;6.95;3.40;;;7.90;99.90;;;;;;7560975;19;20022;-76
2023/04/25 12:25:43;;;;;;;6.00;3.08;;;8.00;99.90;;;;;;7548114;19;20006;-77
2023/04/25 12:28:20;;;;;;;7.38;3.17;;;8.00;99.90;;;;;;7568376;19;20098;-77
2023/04/25 12:31:01;;;;;;;4.63;3.28;;;8.20;99.90;;;;;;7567044;19;20367;-75
2023/04/25 12:33:35;;;;;;;8.68;3.88;;;8.30;99.90;;;;;;7563989;19;20011;-76
2023/04/25 12:36:10;;;;;;;3.90;2.75;;;8.40;99.90;;;;;;7571694;19;20109;-76
2023/04/25 12:38:42;;;;;;;;;;;8.40;99.90;;;;;;7562558;19;20014;-76
2023/04/25 12:41:14;;;;;;;6.07;2.95;;;8.40;99.90;;;;;;7584286;19;19934;-75
2023/04/25 12:43:47;;;;;;;4.45;3.17;;;8.30;99.90;;;;;;7543932;19;20019;-76
2023/04/25 12:46:19;;;;;;;4.75;2.60;;;8.30;99.90;;;;;;7566945;19;20010;-76
2023/04/25 12:48:53;;;;;;;3.67;2.80;;;8.40;99.90;;;;;;7557014;19;20010;-75
2023/04/25 12:51:27;;;;;;;4.90;2.60;;;8.40;99.90;;;;;;7551420;19;20018;-77
2023/04/25 12:54:00;;;;;;;4.55;2.30;;;8.50;99.90;;;;;;7550890;19;20098;-77
2023/04/25 12:56:33;;;;;;;2.93;1.70;;;8.50;99.90;;;;;;7566709;19;20037;-77
2023/04/25 12:59:05;;;;;;;5.10;2.58;;;8.70;99.90;;;;;;7589717;19;20384;-76
2023/04/25 13:01:38;;;;;;;3.45;2.08;;;8.90;99.90;;;;;;7574662;19;20015;-77
2023/04/25 13:04:11;;;;;;;3.47;2.03;;;8.80;99.90;;;;;;7567492;19;20014;-76
2023/04/25 13:06:43;;;;;;;5.75;1.90;;;8.80;99.90;;;;;;7558905;19;20714;-77
2023/04/25 13:09:15;;;;;;;3.38;1.92;;;9.00;99.90;;;;;;7569210;19;20048;-77
2023/04/25 13:11:47;;;;;;;2.85;2.22;;;9.00;99.90;;;;;;7576007;19;20526;-76
2023/04/25 13:14:20;;;;;;;4.80;1.95;;;9.00;99.90;;;;;;7589131;19;20023;-76
2023/04/25 13:16:52;;;;;;;3.40;1.60;;;9.00;99.90;;;;;;7573750;19;20018;-77
2023/04/25 13:19:25;;;;;;;1.98;1.50;;;9.00;99.90;;;;;;7556063;19;20029;-77
2023/04/25 13:21:58;;;;;;;4.03;1.63;;;8.90;99.90;;;;;;7585985;19;20026;-77
2023/04/25 13:24:30;;;;;;;2.45;1.85;;;9.00;99.90;;;;;;7577766;19;20015;-77
2023/04/25 13:27:03;;;;;;;1.83;1.60;;;9.20;99.90;;;;;;7598759;19;20019;-77
2023/04/25 13:29:35;;;;;;;5.15;2.75;;;9.30;99.90;;;;;;7570256;19;20014;-77
2023/04/25 13:32:09;;;;;;;3.33;2.55;;;9.30;99.90;;;;;;7556883;19;20094;-77
2023/04/25 13:34:41;;;;;;;2.47;1.73;;;9.20;99.90;;;;;;7580013;19;20037;-78
2023/04/25 13:37:14;;;;;;;1.63;1.42;;;9.30;99.90;;;;;;7587387;19;20603;-77
2023/04/25 13:39:46;;;;;;;4.85;1.80;;;9.10;99.90;;;;;;7558208;19;20893;-77
2023/04/25 13:42:18;;;;;;;3.40;1.58;;;9.10;99.90;;;;;;7567297;19;20015;-76